createdAt,value
2018-07-09T00:01:37.080Z,8.83
2018-07-09T00:04:04.076Z,7.50
2018-07-09T00:06:31.130Z,8.67
2018-07-09T00:08:58.112Z,7.57
2018-07-09T00:11:25.112Z,8.40
2018-07-09T00:13:52.183Z,8.97
2018-07-09T00:16:19.176Z,8.70
2018-07-09T00:18:46.170Z,9.57
2018-07-09T00:21:14.187Z,8.90
2018-07-09T00:26:21.710Z,9.93
2018-07-09T00:28:48.697Z,8.93
2018-07-09T00:31:15.696Z,9.53
2018-07-09T00:33:43.708Z,9.63
2018-07-09T00:36:10.791Z,9.80
2018-07-09T00:38:38.749Z,8.47
2018-07-09T00:41:05.809Z,9.17
2018-07-09T00:43:32.809Z,7.87
2018-07-09T00:45:59.804Z,8.27
2018-07-09T00:48:26.855Z,8.83
2018-07-09T00:50:53.860Z,9.10
2018-07-09T00:53:20.863Z,8.27
2018-07-09T00:55:47.924Z,8.60
2018-07-09T00:58:14.920Z,9.23
2018-07-09T01:00:41.917Z,9.00
2018-07-09T01:03:08.973Z,9.70
2018-07-09T01:05:35.955Z,8.83
2018-07-09T01:08:02.957Z,9.07
2018-07-09T01:10:30.019Z,8.60
2018-07-09T01:12:57.910Z,8.37
2018-07-09T01:15:24.909Z,9.37
2018-07-09T01:17:52.047Z,8.87
2018-07-09T01:20:20.116Z,9.47
2018-07-09T01:22:47.085Z,8.87
2018-07-09T01:25:14.160Z,9.43
2018-07-09T01:27:41.172Z,9.80
2018-07-09T01:30:08.184Z,9.47
2018-07-09T01:32:35.226Z,9.73
2018-07-09T01:37:40.242Z,9.63
2018-07-09T01:40:07.251Z,9.07
2018-07-09T01:42:34.246Z,8.80
2018-07-09T01:45:01.284Z,9.47
2018-07-09T01:47:28.276Z,10.10
2018-07-09T01:49:55.759Z,8.97
2018-07-09T01:52:23.351Z,9.13
2018-07-09T01:54:51.283Z,8.77
2018-07-09T01:57:18.290Z,8.43
2018-07-09T01:59:45.353Z,9.43
2018-07-09T02:02:12.356Z,9.10
2018-07-09T02:04:39.356Z,9.47
2018-07-09T02:07:06.400Z,9.27
2018-07-09T02:09:33.406Z,8.53
2018-07-09T02:12:00.407Z,8.93
2018-07-09T02:14:27.448Z,8.77
2018-07-09T02:16:54.453Z,9.13
2018-07-09T02:19:21.455Z,9.77
2018-07-09T02:21:49.510Z,8.73
2018-07-09T02:24:16.514Z,8.63
2018-07-09T02:26:43.519Z,8.97
2018-07-09T02:29:10.553Z,8.30
2018-07-09T02:31:37.552Z,8.77
2018-07-09T02:34:04.558Z,7.90
2018-07-09T02:36:31.604Z,7.83
2018-07-09T02:38:58.599Z,8.67
2018-07-09T02:41:25.597Z,8.13
2018-07-09T02:46:31.161Z,8.80
2018-07-09T02:48:58.244Z,8.83
2018-07-09T02:51:25.208Z,8.23
2018-07-09T02:53:52.211Z,8.57
2018-07-09T02:56:19.248Z,9.17
2018-07-09T02:58:46.251Z,8.33
2018-07-09T03:01:14.143Z,9.43
2018-07-09T03:03:41.060Z,8.03
2018-07-09T03:06:08.115Z,8.70
2018-07-09T03:08:35.064Z,8.33
2018-07-09T03:11:02.098Z,8.03
2018-07-09T03:13:29.119Z,8.77
2018-07-09T03:15:56.133Z,8.53
2018-07-09T03:18:23.206Z,8.27
2018-07-09T03:20:50.209Z,8.47
2018-07-09T03:23:17.204Z,7.00
2018-07-09T03:25:44.352Z,8.17
2018-07-09T03:28:11.437Z,8.10
2018-07-09T03:30:38.441Z,8.13
2018-07-09T03:33:05.499Z,7.30
2018-07-09T03:35:32.579Z,7.63
2018-07-09T03:37:59.585Z,7.83
2018-07-09T03:40:26.639Z,8.17
2018-07-09T03:42:53.731Z,8.27
2018-07-09T03:45:20.719Z,8.03
2018-07-09T03:47:47.770Z,8.40
2018-07-09T03:50:15.700Z,7.47
2018-07-09T03:52:42.693Z,7.87
2018-07-09T03:55:09.759Z,7.77
2018-07-09T04:00:16.225Z,8.73
2018-07-09T04:02:44.190Z,7.87
2018-07-09T04:05:11.182Z,7.53
2018-07-09T04:07:38.285Z,7.33
2018-07-09T04:10:05.296Z,8.07
2018-07-09T04:12:32.284Z,7.97
2018-07-09T04:14:59.327Z,8.43
2018-07-09T04:17:26.315Z,8.33
2018-07-09T04:19:53.317Z,8.20
2018-07-09T04:22:20.414Z,7.40
2018-07-09T04:24:47.402Z,7.50
2018-07-09T04:27:15.117Z,9.00
2018-07-09T04:29:42.865Z,7.67
2018-07-09T04:32:09.858Z,9.00
2018-07-09T04:34:36.854Z,8.90
2018-07-09T04:37:03.920Z,7.90
2018-07-09T04:39:30.931Z,9.60
2018-07-09T04:41:57.924Z,9.20
2018-07-09T04:44:24.963Z,8.93
2018-07-09T04:46:52.804Z,9.43
2018-07-09T04:49:19.801Z,9.43
2018-07-09T04:51:46.861Z,9.17
2018-07-09T04:54:13.865Z,9.83
2018-07-09T04:56:40.877Z,9.00
2018-07-09T04:59:07.920Z,9.30
2018-07-09T05:01:34.919Z,8.93
2018-07-09T05:04:01.916Z,7.93
2018-07-09T05:06:28.950Z,8.13
2018-07-09T05:08:55.950Z,9.30
2018-07-09T05:11:23.037Z,9.23
2018-07-09T05:13:50.115Z,8.80
2018-07-09T05:18:55.627Z,10.90
2018-07-09T05:21:22.620Z,9.37
2018-07-09T05:23:49.611Z,9.70
2018-07-09T05:26:17.619Z,9.60
2018-07-09T05:28:44.620Z,10.07
2018-07-09T05:31:11.615Z,10.80
2018-07-09T05:33:38.654Z,10.87
2018-07-09T05:36:05.650Z,10.20
2018-07-09T05:38:32.736Z,10.43
2018-07-09T05:40:59.769Z,9.73
2018-07-09T05:43:26.781Z,10.10
2018-07-09T05:45:53.855Z,10.37
2018-07-09T05:48:20.910Z,9.40
2018-07-09T05:50:47.911Z,9.97
2018-07-09T05:53:14.906Z,9.63
2018-07-09T05:55:41.979Z,9.63
2018-07-09T05:58:08.986Z,9.10
2018-07-09T06:00:35.988Z,9.23
2018-07-09T06:03:03.053Z,10.03
2018-07-09T06:05:30.164Z,10.37
2018-07-09T06:07:57.169Z,10.20
2018-07-09T06:10:24.212Z,9.93
2018-07-09T06:12:51.988Z,9.73
2018-07-09T06:15:18.984Z,9.73
2018-07-09T06:17:46.921Z,10.43
2018-07-09T06:20:13.921Z,10.13
2018-07-09T06:22:40.922Z,9.37
2018-07-09T06:25:07.978Z,9.80
2018-07-09T06:27:34.990Z,9.17
2018-07-09T06:32:41.439Z,10.68
2018-07-09T06:35:08.436Z,10.10
2018-07-09T06:37:35.445Z,9.63
2018-07-09T06:40:02.516Z,9.20
2018-07-09T06:42:29.516Z,9.20
2018-07-09T06:44:56.520Z,10.37
2018-07-09T06:47:23.566Z,9.57
2018-07-09T06:49:50.572Z,8.47
2018-07-09T06:52:17.579Z,7.70
2018-07-09T06:54:44.646Z,7.43
2018-07-09T06:57:11.649Z,8.37
2018-07-09T06:59:38.646Z,7.60
2018-07-09T07:02:05.689Z,7.63
2018-07-09T07:04:32.696Z,7.97
2018-07-09T07:06:59.694Z,7.77
2018-07-09T07:09:26.757Z,7.27
2018-07-09T07:11:53.757Z,7.10
2018-07-09T07:14:20.779Z,8.60
2018-07-09T07:16:48.314Z,6.83
2018-07-09T07:19:15.303Z,6.30
2018-07-09T07:21:42.301Z,7.43
2018-07-09T07:24:09.374Z,6.97
2018-07-09T07:26:36.396Z,6.60
2018-07-09T07:29:03.417Z,7.03
2018-07-09T07:31:30.455Z,6.90
2018-07-09T07:33:57.459Z,6.77
2018-07-09T07:36:25.297Z,6.47
2018-07-09T07:38:52.330Z,5.90
2018-07-09T07:41:20.036Z,6.00
2018-07-09T07:43:47.034Z,5.70
2018-07-09T07:46:14.112Z,5.53
2018-07-09T07:51:20.583Z,6.28
2018-07-09T07:53:47.579Z,5.83
2018-07-09T07:56:14.602Z,6.33
2018-07-09T07:58:42.328Z,5.83
2018-07-09T08:01:10.516Z,5.50
2018-07-09T08:03:37.519Z,6.37
2018-07-09T08:06:04.574Z,5.97
2018-07-09T08:08:31.576Z,6.00
2018-07-09T08:11:10.908Z,6.23
2018-07-09T08:13:29.227Z,6.57
2018-07-09T08:15:52.718Z,6.43
2018-07-09T08:18:19.806Z,6.27
2018-07-09T08:20:47.818Z,5.80
2018-07-09T08:23:14.802Z,6.73
2018-07-09T08:25:41.904Z,5.93
2018-07-09T08:28:08.858Z,5.93
2018-07-09T08:30:35.849Z,5.93
2018-07-09T08:33:03.846Z,6.03
2018-07-09T08:35:31.070Z,5.70
2018-07-09T08:37:58.067Z,5.40
2018-07-09T08:40:25.066Z,5.17
2018-07-09T08:42:52.119Z,5.03
2018-07-09T08:45:19.114Z,5.00
2018-07-09T08:47:46.204Z,5.53
2018-07-09T08:50:13.250Z,4.93
2018-07-09T08:52:40.261Z,5.33
2018-07-09T08:55:07.254Z,5.20
2018-07-09T08:57:34.312Z,5.00
2018-07-09T09:00:01.302Z,5.13
2018-07-09T09:02:28.298Z,5.50
2018-07-09T09:04:55.378Z,5.13
2018-07-09T09:07:22.468Z,4.50
2018-07-09T09:09:49.520Z,4.87
2018-07-09T09:14:55.042Z,4.50
2018-07-09T09:17:23.050Z,2.93
2018-07-09T09:19:50.053Z,3.40
2018-07-09T09:22:17.053Z,3.10
2018-07-09T09:24:44.107Z,3.47
2018-07-09T09:27:11.925Z,3.30
2018-07-09T09:29:39.863Z,2.97
2018-07-09T09:32:07.762Z,2.97
2018-07-09T09:34:34.758Z,2.77
2018-07-09T09:37:01.755Z,3.03
2018-07-09T09:39:28.789Z,3.20
2018-07-09T09:41:55.784Z,2.27
2018-07-09T09:44:22.785Z,2.67
2018-07-09T09:46:49.862Z,2.67
2018-07-09T09:49:16.890Z,2.40
2018-07-09T09:51:43.845Z,2.33
2018-07-09T09:54:10.883Z,3.00
2018-07-09T09:56:37.878Z,2.80
2018-07-09T09:59:04.876Z,2.70
2018-07-09T10:01:32.790Z,2.40
2018-07-09T10:03:59.794Z,2.30
2018-07-09T10:06:26.792Z,2.10
2018-07-09T10:08:53.844Z,2.17
2018-07-09T10:11:21.175Z,2.43
2018-07-09T10:13:48.178Z,2.37
2018-07-09T10:16:15.238Z,2.30
2018-07-09T10:18:42.239Z,2.17
2018-07-09T10:21:09.225Z,2.13
2018-07-09T10:28:55.722Z,1.73
2018-07-09T10:31:22.721Z,1.90
2018-07-09T10:33:50.561Z,1.80
2018-07-09T10:36:17.626Z,1.83
2018-07-09T10:38:44.624Z,2.10
2018-07-09T10:41:11.631Z,2.00
2018-07-09T10:43:38.672Z,2.97
2018-07-09T10:46:05.676Z,2.37
2018-07-09T10:48:32.667Z,2.53
2018-07-09T10:50:59.727Z,2.50
2018-07-09T10:53:26.744Z,2.63
2018-07-09T10:55:53.736Z,2.20
2018-07-09T10:58:20.802Z,2.00
2018-07-09T11:00:47.845Z,1.90
2018-07-09T11:03:14.801Z,2.27
2018-07-09T11:05:41.844Z,2.50
2018-07-09T11:08:08.847Z,2.23
2018-07-09T11:10:35.870Z,2.23
2018-07-09T11:13:02.949Z,2.20
2018-07-09T11:15:29.949Z,2.17
2018-07-09T11:17:56.944Z,2.03
2018-07-09T11:20:23.987Z,1.60
2018-07-09T11:22:50.981Z,1.80
2018-07-09T11:25:17.984Z,1.77
2018-07-09T11:27:45.026Z,1.80
2018-07-09T11:30:12.018Z,1.73
2018-07-09T11:32:39.026Z,1.50
2018-07-09T11:35:06.093Z,1.70
2018-07-09T11:37:33.104Z,1.90
2018-07-09T11:40:00.109Z,1.67
2018-07-09T11:42:27.143Z,1.67
2018-07-09T11:44:54.161Z,1.53
2018-07-09T11:47:22.104Z,1.97
2018-07-09T11:49:49.966Z,1.70
2018-07-09T11:54:57.482Z,2.00
2018-07-09T11:57:24.491Z,1.33
2018-07-09T11:59:51.498Z,1.70
2018-07-09T12:02:19.399Z,1.50
2018-07-09T12:04:46.428Z,1.90
2018-07-09T12:07:13.396Z,1.40
2018-07-09T12:09:40.444Z,1.70
2018-07-09T12:12:07.433Z,1.90
2018-07-09T12:14:34.440Z,2.00
2018-07-09T12:17:01.479Z,2.07
2018-07-09T12:19:28.481Z,2.00
2018-07-09T12:21:55.491Z,1.80
2018-07-09T12:24:23.510Z,1.70
2018-07-09T12:26:50.519Z,1.50
2018-07-09T12:29:17.513Z,1.50
2018-07-09T12:31:45.514Z,1.70
2018-07-09T12:34:12.511Z,1.50
2018-07-09T12:36:39.503Z,1.37
2018-07-09T12:39:06.574Z,1.30
2018-07-09T12:41:33.590Z,1.40
2018-07-09T12:44:00.684Z,1.87
2018-07-09T12:46:27.733Z,1.60
2018-07-09T12:48:55.487Z,1.70
2018-07-09T12:51:22.473Z,1.50
2018-07-09T12:53:49.548Z,1.40
2018-07-09T12:56:16.557Z,1.53
2018-07-09T12:58:43.558Z,1.47
2018-07-09T13:01:10.606Z,1.23
2018-07-09T13:06:16.150Z,1.90
2018-07-09T13:08:43.151Z,1.50
2018-07-09T13:11:10.144Z,1.77
2018-07-09T13:13:37.203Z,1.37
2018-07-09T13:16:04.188Z,1.40
2018-07-09T13:18:31.201Z,1.70
2018-07-09T13:20:58.264Z,1.50
2018-07-09T13:23:25.449Z,1.47
2018-07-09T13:25:52.987Z,1.73
2018-07-09T13:28:20.023Z,1.43
2018-07-09T13:30:47.027Z,1.57
2018-07-09T13:35:56.040Z,1.50
2018-07-09T13:38:23.113Z,1.57
2018-07-09T13:40:50.948Z,1.50
2018-07-09T13:43:18.109Z,1.53
2018-07-09T13:45:45.025Z,1.57
2018-07-09T13:48:12.028Z,1.80
2018-07-09T13:50:39.091Z,1.40
2018-07-09T13:53:06.079Z,1.83
2018-07-09T13:55:33.159Z,1.60
2018-07-09T13:58:01.186Z,1.87
2018-07-09T14:00:28.172Z,1.57
2018-07-09T14:02:55.180Z,1.80
2018-07-09T14:05:22.221Z,1.57
2018-07-09T14:07:50.085Z,1.60
2018-07-09T14:10:17.132Z,1.60
2018-07-09T14:12:44.121Z,1.63
2018-07-09T14:15:11.126Z,2.07
2018-07-09T14:17:38.121Z,2.20
2018-07-09T14:22:52.063Z,2.00
2018-07-09T14:25:19.120Z,1.70
2018-07-09T14:27:46.106Z,1.50
2018-07-09T14:30:14.041Z,2.00
2018-07-09T14:32:41.083Z,1.50
2018-07-09T14:35:08.089Z,1.90
2018-07-09T14:37:35.076Z,1.90
2018-07-09T14:40:02.128Z,1.70
2018-07-09T14:42:29.141Z,1.40
2018-07-09T14:44:56.957Z,1.60
2018-07-09T14:47:25.000Z,1.60
2018-07-09T14:49:52.010Z,1.83
2018-07-09T14:52:19.822Z,1.83
2018-07-09T14:54:46.860Z,2.20
2018-07-09T14:57:13.942Z,1.83
2018-07-09T14:59:40.842Z,2.00
2018-07-09T15:02:08.814Z,1.70
2018-07-09T15:04:35.865Z,1.83
2018-07-09T15:07:03.656Z,1.87
2018-07-09T15:09:30.745Z,1.90
2018-07-09T15:11:58.483Z,1.60
2018-07-09T15:14:25.576Z,2.00
2018-07-09T15:16:52.619Z,1.90
2018-07-09T15:19:19.621Z,2.23
2018-07-09T15:21:46.703Z,2.30
2018-07-09T15:24:13.770Z,1.80
2018-07-09T15:26:41.535Z,2.00
2018-07-09T15:29:08.521Z,1.93
2018-07-09T15:31:35.651Z,2.00
2018-07-09T15:34:02.657Z,2.27
2018-07-09T15:39:08.179Z,2.33
2018-07-09T15:44:02.269Z,2.00
2018-07-09T15:46:29.538Z,1.73
2018-07-09T15:48:56.398Z,2.00
2018-07-09T15:51:23.396Z,2.50
2018-07-09T15:53:51.374Z,2.10
2018-07-09T15:56:18.449Z,2.20
2018-07-09T15:58:45.458Z,2.30
2018-07-09T16:01:12.527Z,2.40
2018-07-09T16:03:39.522Z,2.13
2018-07-09T16:06:07.382Z,1.97
2018-07-09T16:08:34.393Z,2.23
2018-07-09T16:11:01.410Z,2.10
2018-07-09T16:13:28.505Z,2.07
2018-07-09T16:15:55.568Z,2.43
2018-07-09T16:18:23.426Z,2.43
2018-07-09T16:20:50.445Z,2.50
2018-07-09T16:23:17.480Z,2.17
2018-07-09T16:25:44.488Z,2.07
2018-07-09T16:28:11.483Z,2.20
2018-07-09T16:30:38.556Z,2.40
2018-07-09T16:33:05.544Z,2.40
2018-07-09T16:35:32.540Z,2.30
2018-07-09T16:37:59.610Z,2.67
2018-07-09T16:40:26.608Z,2.20
2018-07-09T16:42:53.618Z,2.27
2018-07-09T16:45:20.892Z,2.40
2018-07-09T16:47:47.727Z,2.20
2018-07-09T16:50:14.724Z,2.53
2018-07-09T16:52:41.847Z,2.10
2018-07-09T16:57:47.306Z,2.90
2018-07-09T17:00:14.312Z,2.43
2018-07-09T17:02:41.304Z,2.80
2018-07-09T17:05:08.366Z,2.60
2018-07-09T17:07:35.802Z,2.60
2018-07-09T17:10:02.831Z,2.57
2018-07-09T17:12:29.908Z,2.53
2018-07-09T17:14:56.934Z,2.43
2018-07-09T17:17:24.885Z,2.43
2018-07-09T17:19:51.937Z,2.73
2018-07-09T17:22:19.931Z,2.30
2018-07-09T17:24:46.926Z,2.60
2018-07-09T17:27:14.203Z,2.70
2018-07-09T17:29:41.093Z,2.33
2018-07-09T17:32:08.146Z,2.30
2018-07-09T17:34:37.610Z,2.67
2018-07-09T17:37:05.243Z,2.57
2018-07-09T17:39:32.252Z,2.50
2018-07-09T17:41:59.288Z,2.60
2018-07-09T17:44:26.303Z,2.33
2018-07-09T17:46:53.319Z,2.40
2018-07-09T17:49:20.400Z,2.47
2018-07-09T17:54:28.439Z,2.60
2018-07-09T17:56:55.435Z,2.20
2018-07-09T17:59:22.853Z,2.33
2018-07-09T18:01:49.927Z,4.13
2018-07-09T18:04:16.940Z,2.30
2018-07-09T18:06:43.966Z,2.67
2018-07-09T18:09:11.020Z,2.40
2018-07-09T18:11:38.023Z,2.17
2018-07-09T18:14:05.546Z,1.90
2018-07-09T18:16:32.592Z,2.10
2018-07-09T18:19:00.316Z,2.20
2018-07-09T18:21:27.420Z,2.20
2018-07-09T18:23:54.469Z,2.07
2018-07-09T18:26:22.457Z,2.57
2018-07-09T18:28:49.469Z,2.30
2018-07-09T18:31:16.546Z,2.33
2018-07-09T18:33:43.581Z,2.00
2018-07-09T18:36:10.604Z,2.63
2018-07-09T18:38:37.690Z,2.10
2018-07-09T18:41:04.666Z,2.20
2018-07-09T18:43:31.680Z,2.30
2018-07-09T18:45:58.732Z,2.47
2018-07-09T18:48:25.839Z,2.10
2018-07-09T18:50:52.737Z,1.97
2018-07-09T18:53:19.784Z,2.17
2018-07-09T18:55:46.775Z,2.07
2018-07-09T18:58:13.829Z,2.60
2018-07-09T19:03:22.584Z,2.27
2018-07-09T19:05:49.658Z,2.60
2018-07-09T19:08:16.667Z,2.27
2018-07-09T19:10:43.821Z,2.30
2018-07-09T19:13:11.367Z,2.07
2018-07-09T19:15:38.369Z,2.50
2018-07-09T19:18:17.454Z,2.27
2018-07-09T19:23:29.957Z,2.30
2018-07-09T19:25:56.463Z,2.43
2018-07-09T19:28:24.198Z,2.43
2018-07-09T19:30:50.569Z,2.50
2018-07-09T19:33:17.227Z,2.13
2018-07-09T19:35:43.751Z,2.70
2018-07-09T19:38:10.484Z,2.27
2018-07-09T19:40:37.408Z,2.30
2018-07-09T19:43:03.968Z,2.57
2018-07-09T19:45:31.835Z,2.37
2018-07-09T19:47:58.356Z,2.20
2018-07-09T19:50:25.655Z,2.77
2018-07-09T19:52:52.368Z,2.57
2018-07-09T19:55:19.532Z,2.30
2018-07-09T19:57:46.524Z,2.50
2018-07-09T20:00:16.813Z,2.70
2018-07-09T20:02:44.808Z,2.37
2018-07-09T20:05:11.700Z,2.47
2018-07-09T20:07:40.099Z,2.60
2018-07-09T20:10:07.284Z,2.47
2018-07-09T20:12:33.795Z,2.33
2018-07-09T20:15:00.954Z,2.70
2018-07-09T20:17:28.398Z,2.50
2018-07-09T20:19:55.591Z,2.70
2018-07-09T20:25:03.247Z,3.30
2018-07-09T20:27:30.401Z,2.93
2018-07-09T20:29:56.860Z,2.93
2018-07-09T20:32:23.357Z,2.83
2018-07-09T20:34:50.091Z,3.40
2018-07-09T20:37:16.760Z,3.13
2018-07-09T20:39:43.320Z,3.27
2018-07-09T20:42:09.953Z,3.33
2018-07-09T20:44:36.495Z,2.97
2018-07-09T20:47:03.091Z,3.03
2018-07-09T20:49:29.663Z,3.23
2018-07-09T20:51:56.615Z,3.73
2018-07-09T20:54:23.249Z,3.40
2018-07-09T20:56:49.844Z,3.40
2018-07-09T20:59:16.406Z,3.20
2018-07-09T21:01:43.278Z,3.37
2018-07-09T21:04:09.856Z,3.27
2018-07-09T21:06:36.371Z,2.77
2018-07-09T21:09:02.871Z,3.20
2018-07-09T21:11:29.430Z,3.27
2018-07-09T21:13:55.947Z,2.97
2018-07-09T21:16:22.483Z,3.50
2018-07-09T21:18:49.013Z,2.90
2018-07-09T21:21:15.523Z,3.30
2018-07-09T21:23:42.370Z,2.93
2018-07-09T21:26:08.948Z,3.13
2018-07-09T21:28:35.512Z,3.20
2018-07-09T21:31:01.972Z,3.23
2018-07-09T21:33:28.899Z,3.17
2018-07-09T21:35:55.401Z,3.20
2018-07-09T21:38:21.913Z,2.77
2018-07-09T21:40:48.850Z,2.90
2018-07-09T21:43:15.351Z,3.20
2018-07-09T21:45:41.921Z,2.77
2018-07-09T21:48:10.556Z,3.23
2018-07-09T21:53:15.075Z,3.60
2018-07-09T21:55:41.551Z,3.40
2018-07-09T21:58:08.840Z,3.27
2018-07-09T22:00:35.425Z,3.43
2018-07-09T22:03:02.270Z,2.73
2018-07-09T22:05:29.130Z,3.33
2018-07-09T22:07:55.681Z,3.17
2018-07-09T22:10:22.216Z,3.33
2018-07-09T22:12:48.718Z,3.73
2018-07-09T22:15:15.617Z,3.10
2018-07-09T22:17:42.205Z,3.30
2018-07-09T22:20:09.483Z,3.27
2018-07-09T22:22:36.464Z,2.90
2018-07-09T22:25:02.963Z,3.60
2018-07-09T22:27:29.475Z,3.23
2018-07-09T22:29:56.029Z,3.07
2018-07-09T22:32:23.023Z,3.80
2018-07-09T22:37:21.538Z,3.30
2018-07-09T22:39:50.256Z,3.47
2018-07-09T22:42:21.164Z,3.53
2018-07-09T22:44:47.588Z,3.47
2018-07-09T22:47:14.461Z,3.00
2018-07-09T22:49:41.461Z,2.83
2018-07-09T22:52:08.617Z,3.33
2018-07-09T22:54:35.617Z,3.50
2018-07-09T22:57:02.617Z,3.47
2018-07-09T22:59:29.648Z,3.43
2018-07-09T23:01:56.643Z,3.57
2018-07-09T23:04:24.820Z,3.40
2018-07-09T23:06:52.115Z,4.07
2018-07-09T23:12:02.663Z,4.00
2018-07-09T23:14:28.577Z,3.57
2018-07-09T23:17:07.315Z,3.20
2018-07-09T23:19:34.651Z,3.27
2018-07-09T23:22:02.588Z,3.17
2018-07-09T23:24:29.440Z,3.50
2018-07-09T23:26:55.938Z,3.30
2018-07-09T23:31:59.400Z,3.27
2018-07-09T23:34:26.888Z,3.47
2018-07-09T23:36:53.382Z,3.10
2018-07-09T23:39:19.958Z,3.10
2018-07-09T23:41:46.469Z,3.33
2018-07-09T23:44:12.993Z,2.77
2018-07-09T23:46:39.538Z,2.90
2018-07-09T23:49:06.873Z,2.87
2018-07-09T23:51:34.330Z,3.47
2018-07-09T23:54:00.890Z,2.73
2018-07-09T23:56:27.929Z,3.00
2018-07-09T23:58:54.916Z,2.73
